sensor_id;sensor_type;location;lat;lon;timestamp;pressure;altitude;pressure_sealevel;temperature;humidity
44140;BME280;29803;51.048;4.686;2023-08-12T00:02:24;101754.38;;;21.29;100.00
44140;BME280;29803;51.048;4.686;2023-08-12T00:04:55;101746.00;;;21.30;100.00
44140;BME280;29803;51.048;4.686;2023-08-12T00:07:25;101747.22;;;21.28;100.00
44140;BME280;29803;51.048;4.686;2023-08-12T00:09:56;101750.78;;;21.28;100.00
44140;BME280;29803;51.048;4.686;2023-08-12T00:12:26;101746.81;;;21.24;100.00
44140;BME280;29803;51.048;4.686;2023-08-12T00:14:57;101748.91;;;21.22;100.00
44140;BME280;29803;51.048;4.686;2023-08-12T00:17:28;101742.44;;;21.16;100.00
44140;BME280;29803;51.048;4.686;2023-08-12T00:19:59;101749.38;;;21.19;100.00
44140;BME280;29803;51.048;4.686;2023-08-12T00:22:29;101753.56;;;21.15;100.00
44140;BME280;29803;51.048;4.686;2023-08-12T00:25:00;101747.06;;;21.16;100.00
44140;BME280;29803;51.048;4.686;2023-08-12T00:27:31;101739.09;;;21.14;100.00
44140;BME280;29803;51.048;4.686;2023-08-12T00:30:02;101742.22;;;21.11;100.00
44140;BME280;29803;51.048;4.686;2023-08-12T00:32:32;101742.44;;;21.03;100.00
44140;BME280;29803;51.048;4.686;2023-08-12T00:35:03;101743.72;;;21.07;100.00
44140;BME280;29803;51.048;4.686;2023-08-12T00:37:33;101743.94;;;21.06;100.00
44140;BME280;29803;51.048;4.686;2023-08-12T00:40:04;101733.63;;;21.08;100.00
44140;BME280;29803;51.048;4.686;2023-08-12T00:42:36;101737.41;;;21.07;100.00
44140;BME280;29803;51.048;4.686;2023-08-12T00:45:10;101726.50;;;21.07;100.00
44140;BME280;29803;51.048;4.686;2023-08-12T00:47:41;101726.53;;;21.00;100.00
44140;BME280;29803;51.048;4.686;2023-08-12T00:50:13;101725.06;;;21.04;100.00
44140;BME280;29803;51.048;4.686;2023-08-12T00:52:44;101722.94;;;21.06;100.00
44140;BME280;29803;51.048;4.686;2023-08-12T00:55:16;101718.97;;;21.02;100.00
44140;BME280;29803;51.048;4.686;2023-08-12T00:57:47;101718.78;;;21.04;100.00
44140;BME280;29803;51.048;4.686;2023-08-12T01:00:19;101708.69;;;21.04;100.00
44140;BME280;29803;51.048;4.686;2023-08-12T01:02:51;101702.19;;;21.05;100.00
44140;BME280;29803;51.048;4.686;2023-08-12T01:05:22;101710.59;;;21.04;100.00
44140;BME280;29803;51.048;4.686;2023-08-12T01:07:53;101705.97;;;21.04;100.00
44140;BME280;29803;51.048;4.686;2023-08-12T01:10:24;101700.28;;;21.06;100.00
44140;BME280;29803;51.048;4.686;2023-08-12T01:13:06;101689.59;;;21.04;100.00
44140;BME280;29803;51.048;4.686;2023-08-12T01:15:39;101690.44;;;20.98;100.00
44140;BME280;29803;51.048;4.686;2023-08-12T01:18:11;101693.81;;;21.00;100.00
44140;BME280;29803;51.048;4.686;2023-08-12T01:20:43;101684.56;;;21.01;100.00
44140;BME280;29803;51.048;4.686;2023-08-12T01:23:14;101689.41;;;20.99;100.00
44140;BME280;29803;51.048;4.686;2023-08-12T01:25:45;101689.00;;;20.95;100.00
44140;BME280;29803;51.048;4.686;2023-08-12T01:28:15;101680.56;;;20.97;100.00
44140;BME280;29803;51.048;4.686;2023-08-12T01:30:53;101673.69;;;20.94;100.00
44140;BME280;29803;51.048;4.686;2023-08-12T01:38:59;101675.13;;;20.97;100.00
44140;BME280;29803;51.048;4.686;2023-08-12T01:41:30;101681.03;;;20.94;100.00
44140;BME280;29803;51.048;4.686;2023-08-12T01:44:02;101681.88;;;20.94;100.00
44140;BME280;29803;51.048;4.686;2023-08-12T01:46:33;101679.59;;;20.85;100.00
44140;BME280;29803;51.048;4.686;2023-08-12T01:49:03;101669.72;;;20.84;100.00
44140;BME280;29803;51.048;4.686;2023-08-12T01:51:35;101672.25;;;20.79;100.00
44140;BME280;29803;51.048;4.686;2023-08-12T01:54:06;101664.91;;;20.73;100.00
44140;BME280;29803;51.048;4.686;2023-08-12T01:56:36;101663.88;;;20.67;100.00
44140;BME280;29803;51.048;4.686;2023-08-12T01:59:07;101670.81;;;20.63;100.00
44140;BME280;29803;51.048;4.686;2023-08-12T02:01:37;101667.25;;;20.62;100.00
44140;BME280;29803;51.048;4.686;2023-08-12T02:04:08;101666.63;;;20.60;100.00
44140;BME280;29803;51.048;4.686;2023-08-12T02:06:39;101667.69;;;20.53;100.00
44140;BME280;29803;51.048;4.686;2023-08-12T02:09:10;101664.13;;;20.52;100.00
44140;BME280;29803;51.048;4.686;2023-08-12T02:11:41;101660.78;;;20.50;100.00
44140;BME280;29803;51.048;4.686;2023-08-12T02:14:12;101648.41;;;20.48;100.00
44140;BME280;29803;51.048;4.686;2023-08-12T02:16:42;101645.66;;;20.48;100.00
44140;BME280;29803;51.048;4.686;2023-08-12T02:19:13;101647.38;;;20.49;100.00
44140;BME280;29803;51.048;4.686;2023-08-12T02:21:44;101647.75;;;20.46;100.00
44140;BME280;29803;51.048;4.686;2023-08-12T02:24:14;101627.00;;;20.44;100.00
44140;BME280;29803;51.048;4.686;2023-08-12T02:26:45;101628.69;;;20.46;100.00
44140;BME280;29803;51.048;4.686;2023-08-12T02:29:19;101620.50;;;20.46;100.00
44140;BME280;29803;51.048;4.686;2023-08-12T02:31:50;101618.84;;;20.44;100.00
44140;BME280;29803;51.048;4.686;2023-08-12T02:34:21;101613.78;;;20.41;100.00
44140;BME280;29803;51.048;4.686;2023-08-12T02:36:51;101620.53;;;20.39;100.00
44140;BME280;29803;51.048;4.686;2023-08-12T02:39:22;101602.28;;;20.39;100.00
44140;BME280;29803;51.048;4.686;2023-08-12T02:41:53;101600.16;;;20.41;100.00
44140;BME280;29803;51.048;4.686;2023-08-12T02:44:23;101601.84;;;20.42;100.00
44140;BME280;29803;51.048;4.686;2023-08-12T02:46:54;101596.84;;;20.39;100.00
44140;BME280;29803;51.048;4.686;2023-08-12T02:49:24;101605.00;;;20.39;100.00
44140;BME280;29803;51.048;4.686;2023-08-12T02:51:55;101594.28;;;20.38;100.00
44140;BME280;29803;51.048;4.686;2023-08-12T02:54:25;101598.31;;;20.35;100.00
44140;BME280;29803;51.048;4.686;2023-08-12T02:56:56;101588.47;;;20.34;100.00
44140;BME280;29803;51.048;4.686;2023-08-12T02:59:26;101596.41;;;20.36;100.00
44140;BME280;29803;51.048;4.686;2023-08-12T03:01:57;101592.25;;;20.33;100.00
44140;BME280;29803;51.048;4.686;2023-08-12T03:04:28;101593.50;;;20.31;100.00
44140;BME280;29803;51.048;4.686;2023-08-12T03:06:59;101596.44;;;20.29;100.00
44140;BME280;29803;51.048;4.686;2023-08-12T03:09:29;101593.06;;;20.27;100.00
44140;BME280;29803;51.048;4.686;2023-08-12T03:12:00;101595.78;;;20.27;100.00
44140;BME280;29803;51.048;4.686;2023-08-12T03:14:33;101593.06;;;20.27;100.00
44140;BME280;29803;51.048;4.686;2023-08-12T03:17:03;101584.88;;;20.27;100.00
44140;BME280;29803;51.048;4.686;2023-08-12T03:19:34;101586.38;;;20.30;100.00
44140;BME280;29803;51.048;4.686;2023-08-12T03:22:05;101582.81;;;20.29;100.00
44140;BME280;29803;51.048;4.686;2023-08-12T03:24:35;101575.28;;;20.25;100.00
44140;BME280;29803;51.048;4.686;2023-08-12T03:27:06;101572.97;;;20.28;100.00
44140;BME280;29803;51.048;4.686;2023-08-12T03:29:36;101568.34;;;20.29;100.00
44140;BME280;29803;51.048;4.686;2023-08-12T03:32:07;101570.84;;;20.30;100.00
44140;BME280;29803;51.048;4.686;2023-08-12T03:34:37;101562.69;;;20.30;100.00
44140;BME280;29803;51.048;4.686;2023-08-12T03:37:09;101568.56;;;20.34;100.00
44140;BME280;29803;51.048;4.686;2023-08-12T03:39:39;101562.66;;;20.37;100.00
44140;BME280;29803;51.048;4.686;2023-08-12T03:42:10;101552.59;;;20.37;100.00
44140;BME280;29803;51.048;4.686;2023-08-12T03:44:40;101560.16;;;20.35;100.00
44140;BME280;29803;51.048;4.686;2023-08-12T03:47:11;101549.66;;;20.32;100.00
44140;BME280;29803;51.048;4.686;2023-08-12T03:49:41;101542.78;;;20.30;100.00
44140;BME280;29803;51.048;4.686;2023-08-12T03:52:12;101541.28;;;20.27;100.00
44140;BME280;29803;51.048;4.686;2023-08-12T03:54:42;101552.84;;;20.16;100.00
44140;BME280;29803;51.048;4.686;2023-08-12T03:57:13;101555.16;;;20.12;100.00
44140;BME280;29803;51.048;4.686;2023-08-12T03:59:43;101548.69;;;20.07;100.00
44140;BME280;29803;51.048;4.686;2023-08-12T04:02:14;101558.75;;;20.00;100.00
44140;BME280;29803;51.048;4.686;2023-08-12T04:04:45;101551.44;;;19.94;100.00
44140;BME280;29803;51.048;4.686;2023-08-12T04:07:15;101551.41;;;19.87;100.00
44140;BME280;29803;51.048;4.686;2023-08-12T04:09:46;101546.81;;;19.87;100.00
44140;BME280;29803;51.048;4.686;2023-08-12T04:12:16;101543.25;;;19.87;100.00
44140;BME280;29803;51.048;4.686;2023-08-12T04:14:47;101543.25;;;19.87;100.00
44140;BME280;29803;51.048;4.686;2023-08-12T04:17:18;101541.38;;;19.87;100.00
44140;BME280;29803;51.048;4.686;2023-08-12T04:19:48;101530.06;;;19.90;100.00
44140;BME280;29803;51.048;4.686;2023-08-12T04:22:19;101525.44;;;19.91;100.00
44140;BME280;29803;51.048;4.686;2023-08-12T04:24:50;101527.94;;;19.92;100.00
44140;BME280;29803;51.048;4.686;2023-08-12T04:27:20;101531.31;;;19.95;100.00
44140;BME280;29803;51.048;4.686;2023-08-12T04:29:51;101519.38;;;19.96;100.00
44140;BME280;29803;51.048;4.686;2023-08-12T04:32:21;101510.16;;;19.97;100.00
44140;BME280;29803;51.048;4.686;2023-08-12T04:34:52;101504.28;;;20.00;100.00
44140;BME280;29803;51.048;4.686;2023-08-12T04:37:23;101511.00;;;20.04;100.00
44140;BME280;29803;51.048;4.686;2023-08-12T04:39:54;101498.81;;;20.06;100.00
44140;BME280;29803;51.048;4.686;2023-08-12T04:42:25;101502.56;;;20.12;100.00
44140;BME280;29803;51.048;4.686;2023-08-12T04:44:55;101495.44;;;20.17;100.00
44140;BME280;29803;51.048;4.686;2023-08-12T04:47:26;101501.28;;;20.21;100.00
44140;BME280;29803;51.048;4.686;2023-08-12T04:49:56;101500.25;;;20.22;100.00
44140;BME280;29803;51.048;4.686;2023-08-12T04:52:27;101498.34;;;20.29;100.00
44140;BME280;29803;51.048;4.686;2023-08-12T04:54:57;101493.50;;;20.31;100.00
44140;BME280;29803;51.048;4.686;2023-08-12T04:57:28;101490.78;;;20.31;100.00
44140;BME280;29803;51.048;4.686;2023-08-12T04:59:58;101492.44;;;20.32;100.00
44140;BME280;29803;51.048;4.686;2023-08-12T05:02:29;101486.81;;;20.34;100.00
44140;BME280;29803;51.048;4.686;2023-08-12T05:05:00;101489.50;;;20.40;100.00
44140;BME280;29803;51.048;4.686;2023-08-12T05:07:31;101479.00;;;20.37;100.00
44140;BME280;29803;51.048;4.686;2023-08-12T05:10:02;101473.34;;;20.46;100.00
44140;BME280;29803;51.048;4.686;2023-08-12T05:12:32;101478.78;;;20.46;100.00
44140;BME280;29803;51.048;4.686;2023-08-12T05:15:03;101483.63;;;20.50;100.00
44140;BME280;29803;51.048;4.686;2023-08-12T05:17:34;101479.41;;;20.54;100.00
44140;BME280;29803;51.048;4.686;2023-08-12T05:20:05;101475.84;;;20.54;100.00
44140;BME280;29803;51.048;4.686;2023-08-12T05:22:36;101476.06;;;20.52;100.00
44140;BME280;29803;51.048;4.686;2023-08-12T05:25:06;101470.41;;;20.54;100.00
44140;BME280;29803;51.048;4.686;2023-08-12T05:27:37;101470.19;;;20.55;100.00
44140;BME280;29803;51.048;4.686;2023-08-12T05:30:09;101471.00;;;20.56;100.00
44140;BME280;29803;51.048;4.686;2023-08-12T05:32:39;101467.88;;;20.46;100.00
44140;BME280;29803;51.048;4.686;2023-08-12T05:35:10;101477.13;;;20.44;100.00
44140;BME280;29803;51.048;4.686;2023-08-12T05:37:41;101477.94;;;20.45;100.00
44140;BME280;29803;51.048;4.686;2023-08-12T05:40:11;101474.16;;;20.46;100.00
44140;BME280;29803;51.048;4.686;2023-08-12T05:42:42;101486.56;;;20.49;100.00
44140;BME280;29803;51.048;4.686;2023-08-12T05:45:12;101488.84;;;20.45;100.00
44140;BME280;29803;51.048;4.686;2023-08-12T05:47:43;101469.59;;;20.47;100.00
44140;BME280;29803;51.048;4.686;2023-08-12T05:50:13;101480.44;;;20.53;100.00
44140;BME280;29803;51.048;4.686;2023-08-12T05:52:44;101485.06;;;20.53;100.00
44140;BME280;29803;51.048;4.686;2023-08-12T05:55:15;101484.03;;;20.47;100.00
44140;BME280;29803;51.048;4.686;2023-08-12T05:57:45;101482.53;;;20.58;100.00
44140;BME280;29803;51.048;4.686;2023-08-12T06:00:16;101482.53;;;20.58;100.00
44140;BME280;29803;51.048;4.686;2023-08-12T06:02:46;101481.25;;;20.60;100.00
44140;BME280;29803;51.048;4.686;2023-08-12T06:05:17;101481.09;;;20.55;100.00
44140;BME280;29803;51.048;4.686;2023-08-12T06:07:47;101483.38;;;20.58;100.00
44140;BME280;29803;51.048;4.686;2023-08-12T06:10:18;101479.59;;;20.53;100.00
44140;BME280;29803;51.048;4.686;2023-08-12T06:12:48;101479.38;;;20.61;100.00
44140;BME280;29803;51.048;4.686;2023-08-12T06:15:19;101484.00;;;20.60;100.00
44140;BME280;29803;51.048;4.686;2023-08-12T06:17:49;101478.13;;;20.57;100.00
44140;BME280;29803;51.048;4.686;2023-08-12T06:20:20;101480.66;;;20.58;100.00
44140;BME280;29803;51.048;4.686;2023-08-12T06:22:51;101479.16;;;20.62;100.00
44140;BME280;29803;51.048;4.686;2023-08-12T06:25:22;101479.97;;;20.63;100.00
44140;BME280;29803;51.048;4.686;2023-08-12T06:27:52;101482.69;;;20.63;100.00
44140;BME280;29803;51.048;4.686;2023-08-12T06:30:23;101480.03;;;20.56;100.00
44140;BME280;29803;51.048;4.686;2023-08-12T06:32:53;101481.25;;;20.60;100.00
44140;BME280;29803;51.048;4.686;2023-08-12T06:35:24;101483.81;;;20.55;100.00
44140;BME280;29803;51.048;4.686;2023-08-12T06:37:54;101478.97;;;20.57;100.00
44140;BME280;29803;51.048;4.686;2023-08-12T06:40:25;101489.25;;;20.55;100.00
44140;BME280;29803;51.048;4.686;2023-08-12T06:42:56;101485.47;;;20.56;100.00
44140;BME280;29803;51.048;4.686;2023-08-12T06:45:27;101488.59;;;20.60;100.00
44140;BME280;29803;51.048;4.686;2023-08-12T06:47:58;101484.63;;;20.56;100.00
44140;BME280;29803;51.048;4.686;2023-08-12T06:50:28;101493.03;;;20.54;100.00
44140;BME280;29803;51.048;4.686;2023-08-12T06:52:59;101485.47;;;20.56;100.00
44140;BME280;29803;51.048;4.686;2023-08-12T06:55:29;101492.06;;;20.80;100.00
44140;BME280;29803;51.048;4.686;2023-08-12T06:58:00;101485.59;;;20.75;100.00
44140;BME280;29803;51.048;4.686;2023-08-12T07:00:31;101481.34;;;20.85;100.00
44140;BME280;29803;51.048;4.686;2023-08-12T07:03:02;101490.34;;;20.86;100.00
44140;BME280;29803;51.048;4.686;2023-08-12T07:05:32;101477.97;;;20.83;100.00
44140;BME280;29803;51.048;4.686;2023-08-12T07:08:03;101487.38;;;20.94;100.00
44140;BME280;29803;51.048;4.686;2023-08-12T07:10:34;101483.84;;;20.87;100.00
44140;BME280;29803;51.048;4.686;2023-08-12T07:13:04;101485.84;;;20.98;100.00
44140;BME280;29803;51.048;4.686;2023-08-12T07:15:35;101484.38;;;21.02;100.00
44140;BME280;29803;51.048;4.686;2023-08-12T07:18:05;101487.44;;;21.12;100.00
44140;BME280;29803;51.048;4.686;2023-08-12T07:20:36;101486.69;;;21.05;100.00
44140;BME280;29803;51.048;4.686;2023-08-12T07:23:07;101486.00;;;21.10;100.00
44140;BME280;29803;51.048;4.686;2023-08-12T07:25:37;101481.63;;;21.09;100.00
44140;BME280;29803;51.048;4.686;2023-08-12T07:28:08;101483.66;;;21.13;100.00
44140;BME280;29803;51.048;4.686;2023-08-12T07:30:39;101489.13;;;21.13;100.00
44140;BME280;29803;51.048;4.686;2023-08-12T07:33:09;101495.16;;;21.22;100.00
44140;BME280;29803;51.048;4.686;2023-08-12T07:35:40;101498.66;;;21.36;100.00
44140;BME280;29803;51.048;4.686;2023-08-12T07:38:11;101494.63;;;21.38;100.00
44140;BME280;29803;51.048;4.686;2023-08-12T07:40:41;101492.38;;;21.35;100.00
44140;BME280;29803;51.048;4.686;2023-08-12T07:43:12;101492.59;;;21.27;100.00
44140;BME280;29803;51.048;4.686;2023-08-12T07:45:43;101502.66;;;21.33;100.00
44140;BME280;29803;51.048;4.686;2023-08-12T07:48:13;101504.78;;;21.31;100.00
44140;BME280;29803;51.048;4.686;2023-08-12T07:50:44;101506.88;;;21.29;100.00
44140;BME280;29803;51.048;4.686;2023-08-12T07:53:15;101507.31;;;21.26;100.00
44140;BME280;29803;51.048;4.686;2023-08-12T07:55:46;101512.72;;;21.33;100.00
44140;BME280;29803;51.048;4.686;2023-08-12T07:58:16;101515.88;;;21.36;100.00
44140;BME280;29803;51.048;4.686;2023-08-12T08:00:47;101514.19;;;21.35;100.00
44140;BME280;29803;51.048;4.686;2023-08-12T08:03:18;101514.84;;;21.31;100.00
44140;BME280;29803;51.048;4.686;2023-08-12T08:05:49;101512.75;;;21.26;100.00
44140;BME280;29803;51.048;4.686;2023-08-12T08:08:20;101518.59;;;21.36;100.00
44140;BME280;29803;51.048;4.686;2023-08-12T08:10:51;101517.03;;;21.47;100.00
44140;BME280;29803;51.048;4.686;2023-08-12T08:13:21;101522.47;;;21.54;100.00
44140;BME280;29803;51.048;4.686;2023-08-12T08:15:52;101515.94;;;21.55;100.00
44140;BME280;29803;51.048;4.686;2023-08-12T08:18:22;101520.94;;;21.58;100.00
44140;BME280;29803;51.048;4.686;2023-08-12T08:20:53;101527.53;;;21.75;100.00
44140;BME280;29803;51.048;4.686;2023-08-12T08:23:24;101536.03;;;21.85;100.00
44140;BME280;29803;51.048;4.686;2023-08-12T08:25:54;101535.88;;;21.80;100.00
44140;BME280;29803;51.048;4.686;2023-08-12T08:28:25;101536.44;;;21.64;100.00
44140;BME280;29803;51.048;4.686;2023-08-12T08:30:55;101540.69;;;21.60;100.00
44140;BME280;29803;51.048;4.686;2023-08-12T08:33:26;101544.06;;;21.55;100.00
44140;BME280;29803;51.048;4.686;2023-08-12T08:35:57;101545.88;;;21.36;100.00
44140;BME280;29803;51.048;4.686;2023-08-12T08:38:28;101553.59;;;21.46;100.00
44140;BME280;29803;51.048;4.686;2023-08-12T08:40:59;101562.53;;;21.53;100.00
44140;BME280;29803;51.048;4.686;2023-08-12T08:43:32;101555.25;;;21.47;100.00
44140;BME280;29803;51.048;4.686;2023-08-12T08:46:05;101561.28;;;21.56;100.00
44140;BME280;29803;51.048;4.686;2023-08-12T08:48:36;101573.94;;;21.50;100.00
44140;BME280;29803;51.048;4.686;2023-08-12T08:51:09;101570.31;;;21.18;100.00
44140;BME280;29803;51.048;4.686;2023-08-12T08:53:41;101577.00;;;21.22;100.00
44140;BME280;29803;51.048;4.686;2023-08-12T08:56:11;101568.16;;;21.27;100.00
44140;BME280;29803;51.048;4.686;2023-08-12T08:58:42;101578.66;;;21.23;100.00
44140;BME280;29803;51.048;4.686;2023-08-12T09:01:14;101581.38;;;21.30;100.00
44140;BME280;29803;51.048;4.686;2023-08-12T09:03:46;101578.59;;;21.43;100.00
44140;BME280;29803;51.048;4.686;2023-08-12T09:06:18;101577.09;;;21.47;100.00
44140;BME280;29803;51.048;4.686;2023-08-12T09:08:52;101576.16;;;21.60;100.00
44140;BME280;29803;51.048;4.686;2023-08-12T09:11:23;101574.94;;;21.56;100.00
44140;BME280;29803;51.048;4.686;2023-08-12T09:13:54;101586.03;;;21.86;100.00
44140;BME280;29803;51.048;4.686;2023-08-12T09:16:24;101587.75;;;22.05;100.00
44140;BME280;29803;51.048;4.686;2023-08-12T09:18:56;101592.75;;;22.33;100.00
44140;BME280;29803;51.048;4.686;2023-08-12T09:21:26;101590.03;;;22.33;100.00
44140;BME280;29803;51.048;4.686;2023-08-12T09:24:02;101591.00;;;22.20;100.00
44140;BME280;29803;51.048;4.686;2023-08-12T09:26:35;101595.28;;;22.10;100.00
44140;BME280;29803;51.048;4.686;2023-08-12T09:29:05;101591.66;;;21.91;100.00
44140;BME280;29803;51.048;4.686;2023-08-12T09:31:36;101592.34;;;21.86;100.00
44140;BME280;29803;51.048;4.686;2023-08-12T09:34:06;101583.91;;;22.13;100.00
44140;BME280;29803;51.048;4.686;2023-08-12T09:36:37;101582.19;;;22.18;100.00
44140;BME280;29803;51.048;4.686;2023-08-12T09:39:08;101591.56;;;22.66;100.00
44140;BME280;29803;51.048;4.686;2023-08-12T09:41:39;101591.38;;;23.16;100.00
44140;BME280;29803;51.048;4.686;2023-08-12T09:44:10;101594.66;;;23.36;100.00
44140;BME280;29803;51.048;4.686;2023-08-12T09:46:40;101582.63;;;23.25;100.00
44140;BME280;29803;51.048;4.686;2023-08-12T09:49:11;101590.19;;;22.93;100.00
44140;BME280;29803;51.048;4.686;2023-08-12T09:51:42;101598.84;;;22.72;100.00
44140;BME280;29803;51.048;4.686;2023-08-12T09:54:14;101597.97;;;22.60;100.00
44140;BME280;29803;51.048;4.686;2023-08-12T09:56:48;101587.75;;;22.30;100.00
44140;BME280;29803;51.048;4.686;2023-08-12T09:59:23;101575.53;;;22.08;100.00
44140;BME280;29803;51.048;4.686;2023-08-12T10:01:55;101580.34;;;22.12;100.00
44140;BME280;29803;51.048;4.686;2023-08-12T10:04:28;101590.50;;;22.48;100.00
44140;BME280;29803;51.048;4.686;2023-08-12T10:07:00;101592.47;;;22.78;100.00
44140;BME280;29803;51.048;4.686;2023-08-12T10:09:35;101598.53;;;22.98;100.00
44140;BME280;29803;51.048;4.686;2023-08-12T10:12:07;101596.22;;;23.14;100.00
44140;BME280;29803;51.048;4.686;2023-08-12T10:14:38;101595.66;;;22.93;100.00
44140;BME280;29803;51.048;4.686;2023-08-12T10:17:09;101603.03;;;22.56;100.00
44140;BME280;29803;51.048;4.686;2023-08-12T10:19:56;101593.22;;;22.48;100.00
44140;BME280;29803;51.048;4.686;2023-08-12T10:22:29;101605.84;;;22.49;100.00
44140;BME280;29803;51.048;4.686;2023-08-12T10:25:02;101604.78;;;22.51;100.00
44140;BME280;29803;51.048;4.686;2023-08-12T10:27:33;101596.72;;;22.56;100.00
44140;BME280;29803;51.048;4.686;2023-08-12T10:30:05;101599.09;;;22.70;100.00
44140;BME280;29803;51.048;4.686;2023-08-12T10:32:36;101600.16;;;22.69;100.00
44140;BME280;29803;51.048;4.686;2023-08-12T10:35:08;101602.28;;;22.67;100.00
44140;BME280;29803;51.048;4.686;2023-08-12T10:37:39;101601.72;;;22.59;100.00
44140;BME280;29803;51.048;4.686;2023-08-12T10:40:20;101599.91;;;22.53;100.00
44140;BME280;29803;51.048;4.686;2023-08-12T10:42:51;101599.53;;;22.49;100.00
44140;BME280;29803;51.048;4.686;2023-08-12T10:45:22;101592.94;;;22.57;100.00
44140;BME280;29803;51.048;4.686;2023-08-12T10:48:11;101576.97;;;22.72;100.00
44140;BME280;29803;51.048;4.686;2023-08-12T10:50:48;101579.84;;;22.59;100.00
44140;BME280;29803;51.048;4.686;2023-08-12T10:53:38;101582.75;;;22.82;100.00
44140;BME280;29803;51.048;4.686;2023-08-12T10:56:11;101580.38;;;23.04;100.00
44140;BME280;29803;51.048;4.686;2023-08-12T10:58:45;101580.28;;;23.11;100.00
44140;BME280;29803;51.048;4.686;2023-08-12T11:01:17;101585.06;;;23.15;100.00
44140;BME280;29803;51.048;4.686;2023-08-12T11:03:48;101586.91;;;23.33;100.00
44140;BME280;29803;51.048;4.686;2023-08-12T11:06:19;101587.88;;;23.39;100.00
44140;BME280;29803;51.048;4.686;2023-08-12T11:09:08;101579.22;;;23.53;100.00
44140;BME280;29803;51.048;4.686;2023-08-12T11:11:40;101576.50;;;23.53;100.00
44140;BME280;29803;51.048;4.686;2023-08-12T11:14:14;101579.69;;;23.81;100.00
44140;BME280;29803;51.048;4.686;2023-08-12T11:16:46;101583.13;;;23.88;100.00
44140;BME280;29803;51.048;4.686;2023-08-12T11:19:19;101583.25;;;24.04;100.00
44140;BME280;29803;51.048;4.686;2023-08-12T11:21:51;101580.66;;;24.21;100.00
44140;BME280;29803;51.048;4.686;2023-08-12T11:24:22;101577.66;;;24.46;100.00
44140;BME280;29803;51.048;4.686;2023-08-12T11:26:53;101564.13;;;24.80;100.00
44140;BME280;29803;51.048;4.686;2023-08-12T11:29:25;101573.59;;;24.89;100.00
44140;BME280;29803;51.048;4.686;2023-08-12T11:31:55;101572.47;;;24.85;100.00
44140;BME280;29803;51.048;4.686;2023-08-12T11:34:26;101578.72;;;24.57;100.00
44140;BME280;29803;51.048;4.686;2023-08-12T11:36:58;101579.66;;;24.63;100.00
44140;BME280;29803;51.048;4.686;2023-08-12T11:39:29;101566.25;;;24.78;100.00
44140;BME280;29803;51.048;4.686;2023-08-12T11:42:00;101576.78;;;24.69;100.00
44140;BME280;29803;51.048;4.686;2023-08-12T11:44:30;101572.09;;;24.82;100.00
44140;BME280;29803;51.048;4.686;2023-08-12T11:47:01;101567.41;;;24.94;100.00
44140;BME280;29803;51.048;4.686;2023-08-12T11:49:31;101568.59;;;24.58;100.00
44140;BME280;29803;51.048;4.686;2023-08-12T11:52:03;101580.50;;;24.63;100.00
44140;BME280;29803;51.048;4.686;2023-08-12T11:54:33;101575.66;;;24.42;100.00
44140;BME280;29803;51.048;4.686;2023-08-12T11:57:04;101564.28;;;24.62;100.00
44140;BME280;29803;51.048;4.686;2023-08-12T11:59:36;101566.09;;;24.56;100.00
44140;BME280;29803;51.048;4.686;2023-08-12T12:02:14;101572.56;;;24.50;100.00
44140;BME280;29803;51.048;4.686;2023-08-12T12:05:10;101574.97;;;24.75;100.00
44140;BME280;29803;51.048;4.686;2023-08-12T12:07:48;101569.59;;;24.80;100.00
44140;BME280;29803;51.048;4.686;2023-08-12T12:10:39;101573.59;;;25.01;100.00
44140;BME280;29803;51.048;4.686;2023-08-12T12:13:14;101570.91;;;25.18;100.00
44140;BME280;29803;51.048;4.686;2023-08-12T12:15:47;101571.63;;;25.42;100.00
44140;BME280;29803;51.048;4.686;2023-08-12T12:18:26;101566.66;;;25.55;100.00
44140;BME280;29803;51.048;4.686;2023-08-12T12:21:04;101567.41;;;25.68;100.00
44140;BME280;29803;51.048;4.686;2023-08-12T12:23:45;101569.06;;;25.69;100.00
44140;BME280;29803;51.048;4.686;2023-08-12T12:26:23;101574.56;;;25.69;100.00
44140;BME280;29803;51.048;4.686;2023-08-12T12:28:58;101573.91;;;25.78;100.00
44140;BME280;29803;51.048;4.686;2023-08-12T12:31:31;101568.91;;;25.75;100.00
44140;BME280;29803;51.048;4.686;2023-08-12T12:34:04;101584.09;;;25.78;100.00
44140;BME280;29803;51.048;4.686;2023-08-12T12:36:38;101573.09;;;25.78;100.00
44140;BME280;29803;51.048;4.686;2023-08-12T12:39:09;101577.59;;;25.84;100.00
44140;BME280;29803;51.048;4.686;2023-08-12T12:41:39;101584.09;;;25.78;100.00
44140;BME280;29803;51.048;4.686;2023-08-12T12:44:11;101585.06;;;26.05;100.00
44140;BME280;29803;51.048;4.686;2023-08-12T12:46:45;101578.09;;;25.98;100.00
44140;BME280;29803;51.048;4.686;2023-08-12T12:49:19;101585.84;;;25.39;100.00
44140;BME280;29803;51.048;4.686;2023-08-12T12:51:51;101585.28;;;25.53;100.00
44140;BME280;29803;51.048;4.686;2023-08-12T12:54:22;101589.00;;;25.93;100.00
44140;BME280;29803;51.048;4.686;2023-08-12T12:56:53;101590.06;;;26.08;100.00
44140;BME280;29803;51.048;4.686;2023-08-12T12:59:23;101591.56;;;26.16;100.00
44140;BME280;29803;51.048;4.686;2023-08-12T13:01:54;101594.34;;;26.38;100.00
44140;BME280;29803;51.048;4.686;2023-08-12T13:04:24;101592.22;;;26.62;100.00
44140;BME280;29803;51.048;4.686;2023-08-12T13:06:55;101588.59;;;26.56;100.00
44140;BME280;29803;51.048;4.686;2023-08-12T13:09:26;101593.13;;;26.46;100.00